sensor_id;sensor_type;location;lat;lon;timestamp;pressure;altitude;pressure_sealevel;temperature;humidity
22605;BME280;11469;49.024;8.246;2023-06-19T00:01:28;99878.59;;;22.68;62.36
22605;BME280;11469;49.024;8.246;2023-06-19T00:03:53;99870.34;;;22.70;62.11
22605;BME280;11469;49.024;8.246;2023-06-19T00:06:19;99864.78;;;22.66;61.95
22605;BME280;11469;49.024;8.246;2023-06-19T00:08:44;99856.06;;;22.70;61.64
22605;BME280;11469;49.024;8.246;2023-06-19T00:11:09;99871.38;;;22.76;61.51
22605;BME280;11469;49.024;8.246;2023-06-19T00:13:35;99869.59;;;22.82;61.02
22605;BME280;11469;49.024;8.246;2023-06-19T00:16:01;99858.63;;;22.80;61.00
22605;BME280;11469;49.024;8.246;2023-06-19T00:18:27;99886.25;;;22.83;60.98
22605;BME280;11469;49.024;8.246;2023-06-19T00:20:53;99898.16;;;22.82;60.79
22605;BME280;11469;49.024;8.246;2023-06-19T00:23:23;99905.91;;;22.81;61.23
22605;BME280;11469;49.024;8.246;2023-06-19T00:25:49;99913.34;;;22.79;61.31
22605;BME280;11469;49.024;8.246;2023-06-19T00:28:14;99912.06;;;22.67;61.39
22605;BME280;11469;49.024;8.246;2023-06-19T00:30:40;99914.13;;;22.67;61.14
22605;BME280;11469;49.024;8.246;2023-06-19T00:33:07;99912.75;;;22.71;60.63
22605;BME280;11469;49.024;8.246;2023-06-19T00:35:32;99923.13;;;22.78;59.54
22605;BME280;11469;49.024;8.246;2023-06-19T00:37:58;99921.47;;;22.80;59.85
22605;BME280;11469;49.024;8.246;2023-06-19T00:40:31;99921.81;;;22.82;59.75
22605;BME280;11469;49.024;8.246;2023-06-19T00:42:57;99941.78;;;22.82;60.15
22605;BME280;11469;49.024;8.246;2023-06-19T00:45:24;99934.47;;;22.81;60.14
22605;BME280;11469;49.024;8.246;2023-06-19T00:47:54;99960.19;;;22.81;60.86
22605;BME280;11469;49.024;8.246;2023-06-19T00:50:23;99961.53;;;22.77;61.16
22605;BME280;11469;49.024;8.246;2023-06-19T00:52:49;99968.03;;;22.77;61.22
22605;BME280;11469;49.024;8.246;2023-06-19T00:55:16;99975.47;;;22.75;61.90
22605;BME280;11469;49.024;8.246;2023-06-19T00:57:42;99976.63;;;22.65;62.81
22605;BME280;11469;49.024;8.246;2023-06-19T01:00:08;99990.75;;;22.56;63.43
22605;BME280;11469;49.024;8.246;2023-06-19T01:02:37;99990.66;;;22.59;63.43
22605;BME280;11469;49.024;8.246;2023-06-19T01:05:03;100003.09;;;22.52;64.31
22605;BME280;11469;49.024;8.246;2023-06-19T01:10:07;99994.38;;;22.43;65.03
22605;BME280;11469;49.024;8.246;2023-06-19T01:12:37;100008.50;;;22.34;65.65
22605;BME280;11469;49.024;8.246;2023-06-19T01:15:05;100000.75;;;22.35;65.89
22605;BME280;11469;49.024;8.246;2023-06-19T01:17:32;99992.28;;;22.31;66.99
22605;BME280;11469;49.024;8.246;2023-06-19T01:19:58;99987.91;;;22.27;68.37
22605;BME280;11469;49.024;8.246;2023-06-19T01:22:31;99993.72;;;22.10;70.43
22605;BME280;11469;49.024;8.246;2023-06-19T01:24:56;99996.13;;;21.96;72.52
22605;BME280;11469;49.024;8.246;2023-06-19T01:27:26;99991.44;;;21.73;77.86
22605;BME280;11469;49.024;8.246;2023-06-19T01:29:56;99984.16;;;21.56;81.29
22605;BME280;11469;49.024;8.246;2023-06-19T01:33:05;99989.88;;;21.39;82.72
22605;BME280;11469;49.024;8.246;2023-06-19T01:35:35;99978.19;;;21.17;85.59
22605;BME280;11469;49.024;8.246;2023-06-19T01:38:02;99956.25;;;20.98;88.70
22605;BME280;11469;49.024;8.246;2023-06-19T01:40:28;99949.47;;;20.76;89.63
22605;BME280;11469;49.024;8.246;2023-06-19T01:42:57;99960.06;;;20.75;92.78
22605;BME280;11469;49.024;8.246;2023-06-19T01:45:24;99985.84;;;20.68;93.07
22605;BME280;11469;49.024;8.246;2023-06-19T01:47:50;99971.84;;;20.58;94.19
22605;BME280;11469;49.024;8.246;2023-06-19T01:50:16;99985.00;;;20.51;96.23
22605;BME280;11469;49.024;8.246;2023-06-19T01:52:41;99970.22;;;20.37;98.07
22605;BME280;11469;49.024;8.246;2023-06-19T01:55:07;99963.91;;;20.29;99.64
22605;BME280;11469;49.024;8.246;2023-06-19T01:57:34;99963.81;;;20.13;100.00
22605;BME280;11469;49.024;8.246;2023-06-19T02:00:01;99947.47;;;19.97;100.00
22605;BME280;11469;49.024;8.246;2023-06-19T02:02:27;99942.16;;;19.99;100.00
22605;BME280;11469;49.024;8.246;2023-06-19T02:04:52;99941.66;;;19.84;100.00
22605;BME280;11469;49.024;8.246;2023-06-19T02:07:17;99962.88;;;19.80;100.00
22605;BME280;11469;49.024;8.246;2023-06-19T02:09:43;99948.47;;;19.67;100.00
22605;BME280;11469;49.024;8.246;2023-06-19T02:12:08;99951.44;;;19.60;100.00
22605;BME280;11469;49.024;8.246;2023-06-19T02:14:34;99944.09;;;19.63;100.00
22605;BME280;11469;49.024;8.246;2023-06-19T02:16:59;99942.78;;;19.67;100.00
22605;BME280;11469;49.024;8.246;2023-06-19T02:19:25;99944.47;;;19.65;100.00
22605;BME280;11469;49.024;8.246;2023-06-19T02:21:50;99956.41;;;19.56;100.00
22605;BME280;11469;49.024;8.246;2023-06-19T02:24:15;99964.84;;;19.60;100.00
22605;BME280;11469;49.024;8.246;2023-06-19T02:26:41;99958.69;;;19.65;100.00
22605;BME280;11469;49.024;8.246;2023-06-19T02:29:06;99970.41;;;19.67;100.00
22605;BME280;11469;49.024;8.246;2023-06-19T02:31:31;99976.91;;;19.67;100.00
22605;BME280;11469;49.024;8.246;2023-06-19T02:33:57;99984.63;;;19.67;100.00
22605;BME280;11469;49.024;8.246;2023-06-19T02:36:22;99990.31;;;19.67;100.00
22605;BME280;11469;49.024;8.246;2023-06-19T02:38:48;99994.03;;;19.64;100.00
22605;BME280;11469;49.024;8.246;2023-06-19T02:41:14;99995.63;;;19.65;100.00
22605;BME280;11469;49.024;8.246;2023-06-19T02:43:44;99998.47;;;19.65;100.00
22605;BME280;11469;49.024;8.246;2023-06-19T02:46:10;100002.13;;;19.65;100.00
22605;BME280;11469;49.024;8.246;2023-06-19T02:48:35;100004.97;;;19.65;100.00
22605;BME280;11469;49.024;8.246;2023-06-19T02:51:01;100007.00;;;19.65;100.00
22605;BME280;11469;49.024;8.246;2023-06-19T02:53:26;100013.91;;;19.64;100.00
22605;BME280;11469;49.024;8.246;2023-06-19T02:55:51;100007.50;;;19.60;100.00
22605;BME280;11469;49.024;8.246;2023-06-19T02:58:17;100014.28;;;19.66;100.00
22605;BME280;11469;49.024;8.246;2023-06-19T03:00:43;100009.16;;;19.57;100.00
22605;BME280;11469;49.024;8.246;2023-06-19T03:03:08;100012.88;;;19.54;100.00
22605;BME280;11469;49.024;8.246;2023-06-19T03:05:33;100017.25;;;19.59;100.00
22605;BME280;11469;49.024;8.246;2023-06-19T03:07:59;100017.69;;;19.57;100.00
22605;BME280;11469;49.024;8.246;2023-06-19T03:10:24;100031.03;;;19.60;100.00
22605;BME280;11469;49.024;8.246;2023-06-19T03:12:50;100025.34;;;19.60;100.00
22605;BME280;11469;49.024;8.246;2023-06-19T03:15:15;100038.88;;;19.52;100.00
22605;BME280;11469;49.024;8.246;2023-06-19T03:17:41;100045.00;;;19.47;100.00
22605;BME280;11469;49.024;8.246;2023-06-19T03:20:06;100053.91;;;19.49;100.00
22605;BME280;11469;49.024;8.246;2023-06-19T03:22:34;100046.63;;;19.48;100.00
22605;BME280;11469;49.024;8.246;2023-06-19T03:24:59;100051.88;;;19.50;100.00
22605;BME280;11469;49.024;8.246;2023-06-19T03:27:25;100055.94;;;19.49;100.00
22605;BME280;11469;49.024;8.246;2023-06-19T03:29:52;100052.00;;;19.43;100.00
22605;BME280;11469;49.024;8.246;2023-06-19T03:32:18;100054.03;;;19.42;100.00
22605;BME280;11469;49.024;8.246;2023-06-19T03:34:44;100062.25;;;19.37;100.00
22605;BME280;11469;49.024;8.246;2023-06-19T03:37:09;100057.44;;;19.34;100.00
22605;BME280;11469;49.024;8.246;2023-06-19T03:39:35;100063.97;;;19.31;100.00
22605;BME280;11469;49.024;8.246;2023-06-19T03:42:00;100059.91;;;19.32;100.00
22605;BME280;11469;49.024;8.246;2023-06-19T03:44:25;100058.28;;;19.31;100.00
22605;BME280;11469;49.024;8.246;2023-06-19T03:46:51;100053.03;;;19.29;100.00
22605;BME280;11469;49.024;8.246;2023-06-19T03:49:16;100050.19;;;19.29;100.00
22605;BME280;11469;49.024;8.246;2023-06-19T03:51:42;100055.06;;;19.29;100.00
22605;BME280;11469;49.024;8.246;2023-06-19T03:54:08;100046.50;;;19.32;100.00
22605;BME280;11469;49.024;8.246;2023-06-19T03:56:33;100054.97;;;19.36;100.00
22605;BME280;11469;49.024;8.246;2023-06-19T03:58:59;100051.63;;;19.41;100.00
22605;BME280;11469;49.024;8.246;2023-06-19T04:01:24;100069.47;;;19.41;100.00
22605;BME280;11469;49.024;8.246;2023-06-19T04:03:49;100071.88;;;19.43;100.00
22605;BME280;11469;49.024;8.246;2023-06-19T04:06:15;100076.00;;;19.38;100.00
22605;BME280;11469;49.024;8.246;2023-06-19T04:08:40;100075.94;;;19.42;100.00
22605;BME280;11469;49.024;8.246;2023-06-19T04:11:05;100081.25;;;19.40;100.00
22605;BME280;11469;49.024;8.246;2023-06-19T04:13:31;100086.13;;;19.39;100.00
22605;BME280;11469;49.024;8.246;2023-06-19T04:15:57;100087.31;;;19.42;100.00
22605;BME280;11469;49.024;8.246;2023-06-19T04:18:22;100090.09;;;19.45;100.00
22605;BME280;11469;49.024;8.246;2023-06-19T04:20:47;100089.69;;;19.47;100.00
22605;BME280;11469;49.024;8.246;2023-06-19T04:23:13;100084.00;;;19.47;100.00
22605;BME280;11469;49.024;8.246;2023-06-19T04:25:38;100081.16;;;19.47;100.00
22605;BME280;11469;49.024;8.246;2023-06-19T04:28:03;100081.88;;;19.54;100.00
22605;BME280;11469;49.024;8.246;2023-06-19T04:30:29;100087.44;;;19.62;100.00
22605;BME280;11469;49.024;8.246;2023-06-19T04:32:57;100081.97;;;19.74;100.00
22605;BME280;11469;49.024;8.246;2023-06-19T04:35:22;100078.91;;;19.85;100.00
22605;BME280;11469;49.024;8.246;2023-06-19T04:37:49;100074.72;;;19.93;100.00
22605;BME280;11469;49.024;8.246;2023-06-19T04:40:14;100080.28;;;20.00;100.00
22605;BME280;11469;49.024;8.246;2023-06-19T04:42:40;100084.66;;;20.05;100.00
22605;BME280;11469;49.024;8.246;2023-06-19T04:45:06;100076.44;;;20.10;100.00
22605;BME280;11469;49.024;8.246;2023-06-19T04:47:32;100080.69;;;20.22;100.00
22605;BME280;11469;49.024;8.246;2023-06-19T04:49:59;100079.59;;;20.36;99.71
22605;BME280;11469;49.024;8.246;2023-06-19T04:52:25;100079.34;;;20.50;98.78
22605;BME280;11469;49.024;8.246;2023-06-19T04:54:51;100072.28;;;20.58;97.22
22605;BME280;11469;49.024;8.246;2023-06-19T04:57:16;100074.09;;;20.68;97.06
22605;BME280;11469;49.024;8.246;2023-06-19T04:59:42;100074.94;;;20.85;95.61
22605;BME280;11469;49.024;8.246;2023-06-19T05:02:09;100084.66;;;20.87;94.39
22605;BME280;11469;49.024;8.246;2023-06-19T05:04:37;100085.31;;;20.95;93.95
22605;BME280;11469;49.024;8.246;2023-06-19T05:07:03;100085.16;;;21.02;93.82
22605;BME280;11469;49.024;8.246;2023-06-19T05:09:28;100089.97;;;21.05;93.86
22605;BME280;11469;49.024;8.246;2023-06-19T05:11:54;100092.03;;;21.05;93.67
22605;BME280;11469;49.024;8.246;2023-06-19T05:14:19;100093.13;;;21.11;93.44
22605;BME280;11469;49.024;8.246;2023-06-19T05:16:45;100092.22;;;21.14;92.77
22605;BME280;11469;49.024;8.246;2023-06-19T05:19:10;100090.66;;;21.29;92.49
22605;BME280;11469;49.024;8.246;2023-06-19T05:21:36;100080.81;;;21.50;92.10
22605;BME280;11469;49.024;8.246;2023-06-19T05:24:01;100093.41;;;21.69;91.09
22605;BME280;11469;49.024;8.246;2023-06-19T05:26:27;100084.09;;;21.81;89.48
22605;BME280;11469;49.024;8.246;2023-06-19T05:28:52;100085.97;;;21.88;88.64
22605;BME280;11469;49.024;8.246;2023-06-19T05:31:18;100097.94;;;21.99;87.97
22605;BME280;11469;49.024;8.246;2023-06-19T05:33:44;100098.47;;;22.10;87.41
22605;BME280;11469;49.024;8.246;2023-06-19T05:36:09;100105.16;;;22.20;86.37
22605;BME280;11469;49.024;8.246;2023-06-19T05:38:35;100106.94;;;22.13;86.24
22605;BME280;11469;49.024;8.246;2023-06-19T05:41:01;100099.09;;;22.17;86.88
22605;BME280;11469;49.024;8.246;2023-06-19T05:43:27;100105.69;;;21.98;88.16
22605;BME280;11469;49.024;8.246;2023-06-19T05:45:53;100106.78;;;22.21;87.10
22605;BME280;11469;49.024;8.246;2023-06-19T05:48:19;100098.50;;;22.39;85.79
22605;BME280;11469;49.024;8.246;2023-06-19T05:50:45;100090.84;;;22.65;84.84
22605;BME280;11469;49.024;8.246;2023-06-19T05:53:10;100087.59;;;22.79;83.87
22605;BME280;11469;49.024;8.246;2023-06-19T05:55:35;100094.63;;;23.03;82.53
22605;BME280;11469;49.024;8.246;2023-06-19T05:58:02;100083.09;;;23.32;81.58
22605;BME280;11469;49.024;8.246;2023-06-19T06:00:29;100094.88;;;23.47;80.33
22605;BME280;11469;49.024;8.246;2023-06-19T06:02:56;100097.19;;;23.65;80.27
22605;BME280;11469;49.024;8.246;2023-06-19T06:05:23;100099.34;;;23.73;78.45
22605;BME280;11469;49.024;8.246;2023-06-19T06:07:49;100101.06;;;23.71;78.61
22605;BME280;11469;49.024;8.246;2023-06-19T06:10:15;100097.84;;;23.81;77.80
22605;BME280;11469;49.024;8.246;2023-06-19T06:12:42;100102.09;;;23.77;78.10
22605;BME280;11469;49.024;8.246;2023-06-19T06:15:08;100100.13;;;23.87;78.27
22605;BME280;11469;49.024;8.246;2023-06-19T06:17:33;100094.50;;;24.08;77.82
22605;BME280;11469;49.024;8.246;2023-06-19T06:19:58;100108.75;;;24.21;76.26
22605;BME280;11469;49.024;8.246;2023-06-19T06:22:24;100107.50;;;24.35;76.09
22605;BME280;11469;49.024;8.246;2023-06-19T06:24:50;100105.38;;;24.48;75.03
22605;BME280;11469;49.024;8.246;2023-06-19T06:27:15;100098.84;;;24.69;74.52
22605;BME280;11469;49.024;8.246;2023-06-19T06:29:40;100111.72;;;24.87;74.41
22605;BME280;11469;49.024;8.246;2023-06-19T06:32:07;100113.25;;;24.78;72.32
22605;BME280;11469;49.024;8.246;2023-06-19T06:34:33;100116.91;;;24.79;72.43
22605;BME280;11469;49.024;8.246;2023-06-19T06:36:59;100117.91;;;24.85;72.79
22605;BME280;11469;49.024;8.246;2023-06-19T06:39:25;100124.78;;;24.88;72.39
22605;BME280;11469;49.024;8.246;2023-06-19T06:41:51;100133.78;;;24.77;71.76
22605;BME280;11469;49.024;8.246;2023-06-19T06:44:16;100130.03;;;24.67;71.31
22605;BME280;11469;49.024;8.246;2023-06-19T06:46:42;100139.84;;;24.79;71.67
22605;BME280;11469;49.024;8.246;2023-06-19T06:49:07;100155.81;;;25.02;71.52
22605;BME280;11469;49.024;8.246;2023-06-19T06:51:33;100156.97;;;24.92;70.91
22605;BME280;11469;49.024;8.246;2023-06-19T06:53:58;100155.78;;;24.80;70.04
22605;BME280;11469;49.024;8.246;2023-06-19T06:56:23;100167.44;;;25.07;69.91
22605;BME280;11469;49.024;8.246;2023-06-19T06:58:49;100163.53;;;25.14;68.50
22605;BME280;11469;49.024;8.246;2023-06-19T07:01:14;100161.53;;;25.24;68.42
22605;BME280;11469;49.024;8.246;2023-06-19T07:03:40;100171.38;;;25.23;68.63
22605;BME280;11469;49.024;8.246;2023-06-19T07:06:05;100168.44;;;24.92;69.44
22605;BME280;11469;49.024;8.246;2023-06-19T07:08:30;100176.09;;;24.73;70.14
22605;BME280;11469;49.024;8.246;2023-06-19T07:10:56;100179.25;;;24.53;71.10
22605;BME280;11469;49.024;8.246;2023-06-19T07:13:21;100178.38;;;24.43;71.78
22605;BME280;11469;49.024;8.246;2023-06-19T07:15:47;100179.53;;;24.33;72.73
22605;BME280;11469;49.024;8.246;2023-06-19T07:18:12;100179.63;;;24.42;73.09
22605;BME280;11469;49.024;8.246;2023-06-19T07:20:37;100181.78;;;24.51;72.73
22605;BME280;11469;49.024;8.246;2023-06-19T07:23:03;100185.00;;;24.53;72.78
22605;BME280;11469;49.024;8.246;2023-06-19T07:25:29;100180.53;;;24.74;72.80
22605;BME280;11469;49.024;8.246;2023-06-19T07:27:54;100188.63;;;25.01;71.28
22605;BME280;11469;49.024;8.246;2023-06-19T07:30:20;100202.59;;;25.42;69.60
22605;BME280;11469;49.024;8.246;2023-06-19T07:32:45;100202.66;;;25.30;70.44
22605;BME280;11469;49.024;8.246;2023-06-19T07:35:11;100207.25;;;25.27;69.19
22605;BME280;11469;49.024;8.246;2023-06-19T07:37:37;100211.13;;;25.11;69.93
22605;BME280;11469;49.024;8.246;2023-06-19T07:40:03;100208.94;;;25.16;70.19
22605;BME280;11469;49.024;8.246;2023-06-19T07:42:28;100212.34;;;25.23;70.18
22605;BME280;11469;49.024;8.246;2023-06-19T07:44:54;100216.94;;;25.21;70.73
22605;BME280;11469;49.024;8.246;2023-06-19T07:47:19;100213.75;;;24.97;70.36
22605;BME280;11469;49.024;8.246;2023-06-19T07:49:46;100222.09;;;25.04;71.50
22605;BME280;11469;49.024;8.246;2023-06-19T07:52:11;100213.75;;;24.84;71.75
22605;BME280;11469;49.024;8.246;2023-06-19T07:54:56;100220.56;;;24.65;71.64
22605;BME280;11469;49.024;8.246;2023-06-19T07:57:22;100214.44;;;24.88;72.20
22605;BME280;11469;49.024;8.246;2023-06-19T07:59:49;100216.16;;;24.98;71.11
22605;BME280;11469;49.024;8.246;2023-06-19T08:02:15;100215.59;;;25.12;70.52
22605;BME280;11469;49.024;8.246;2023-06-19T08:04:40;100217.00;;;25.30;68.20
22605;BME280;11469;49.024;8.246;2023-06-19T08:07:06;100212.47;;;24.98;68.98
22605;BME280;11469;49.024;8.246;2023-06-19T08:09:32;100217.09;;;24.83;69.09
22605;BME280;11469;49.024;8.246;2023-06-19T08:11:57;100214.94;;;24.74;69.60
22605;BME280;11469;49.024;8.246;2023-06-19T08:14:22;100218.50;;;24.65;70.45
22605;BME280;11469;49.024;8.246;2023-06-19T08:16:48;100224.19;;;24.56;71.58
22605;BME280;11469;49.024;8.246;2023-06-19T08:19:14;100223.50;;;24.39;71.95
22605;BME280;11469;49.024;8.246;2023-06-19T08:21:39;100220.88;;;24.45;71.61
22605;BME280;11469;49.024;8.246;2023-06-19T08:24:05;100216.88;;;24.42;71.63
22605;BME280;11469;49.024;8.246;2023-06-19T08:26:31;100220.50;;;24.56;72.36
22605;BME280;11469;49.024;8.246;2023-06-19T08:28:56;100228.91;;;24.72;70.20
22605;BME280;11469;49.024;8.246;2023-06-19T08:31:22;100225.13;;;24.75;70.18
22605;BME280;11469;49.024;8.246;2023-06-19T08:33:56;100232.59;;;25.07;69.92
22605;BME280;11469;49.024;8.246;2023-06-19T08:36:21;100235.47;;;25.29;68.90
22605;BME280;11469;49.024;8.246;2023-06-19T08:38:47;100229.88;;;25.25;68.32
22605;BME280;11469;49.024;8.246;2023-06-19T08:41:17;100230.47;;;25.20;67.83
22605;BME280;11469;49.024;8.246;2023-06-19T08:43:44;100235.47;;;25.07;69.13
22605;BME280;11469;49.024;8.246;2023-06-19T08:46:13;100235.88;;;24.84;70.80
22605;BME280;11469;49.024;8.246;2023-06-19T08:48:40;100248.75;;;24.66;71.54
22605;BME280;11469;49.024;8.246;2023-06-19T08:51:05;100250.69;;;24.69;71.99
22605;BME280;11469;49.024;8.246;2023-06-19T08:53:35;100252.72;;;24.34;73.41
22605;BME280;11469;49.024;8.246;2023-06-19T08:56:04;100253.41;;;24.38;73.70
22605;BME280;11469;49.024;8.246;2023-06-19T08:58:29;100246.19;;;24.46;73.05
22605;BME280;11469;49.024;8.246;2023-06-19T09:00:58;100247.47;;;24.80;71.74
22605;BME280;11469;49.024;8.246;2023-06-19T09:03:23;100243.75;;;25.27;70.42
22605;BME280;11469;49.024;8.246;2023-06-19T09:05:49;100239.41;;;25.66;69.33
22605;BME280;11469;49.024;8.246;2023-06-19T09:08:21;100228.41;;;25.42;67.86
22605;BME280;11469;49.024;8.246;2023-06-19T09:11:00;100231.28;;;25.42;67.94
22605;BME280;11469;49.024;8.246;2023-06-19T09:13:27;100234.78;;;25.68;66.41
22605;BME280;11469;49.024;8.246;2023-06-19T09:16:12;100227.38;;;25.80;65.97
22605;BME280;11469;49.024;8.246;2023-06-19T09:18:47;100228.63;;;26.19;63.37
22605;BME280;11469;49.024;8.246;2023-06-19T09:21:20;100225.38;;;26.39;63.44
22605;BME280;11469;49.024;8.246;2023-06-19T09:23:48;100229.56;;;26.65;63.20
22605;BME280;11469;49.024;8.246;2023-06-19T09:26:17;100219.06;;;26.81;62.49
22605;BME280;11469;49.024;8.246;2023-06-19T09:28:43;100220.84;;;26.96;61.88
22605;BME280;11469;49.024;8.246;2023-06-19T09:31:09;100221.94;;;26.99;62.03
22605;BME280;11469;49.024;8.246;2023-06-19T09:33:35;100218.59;;;27.37;61.75
22605;BME280;11469;49.024;8.246;2023-06-19T09:36:03;100224.19;;;27.22;61.23
22605;BME280;11469;49.024;8.246;2023-06-19T09:38:31;100216.03;;;26.93;61.87
22605;BME280;11469;49.024;8.246;2023-06-19T09:41:00;100218.44;;;26.86;61.99
22605;BME280;11469;49.024;8.246;2023-06-19T09:43:46;100219.03;;;26.71;62.51
22605;BME280;11469;49.024;8.246;2023-06-19T09:46:14;100209.91;;;26.55;63.31
22605;BME280;11469;49.024;8.246;2023-06-19T09:48:42;100213.09;;;26.48;64.23
22605;BME280;11469;49.024;8.246;2023-06-19T09:51:23;100207.84;;;26.55;63.79
22605;BME280;11469;49.024;8.246;2023-06-19T09:53:49;100205.47;;;26.72;64.20
22605;BME280;11469;49.024;8.246;2023-06-19T09:56:16;100200.53;;;26.82;63.39
22605;BME280;11469;49.024;8.246;2023-06-19T09:58:48;100200.53;;;26.82;63.01
22605;BME280;11469;49.024;8.246;2023-06-19T10:01:15;100204.81;;;26.95;62.83
22605;BME280;11469;49.024;8.246;2023-06-19T10:03:43;100210.75;;;26.92;62.14
22605;BME280;11469;49.024;8.246;2023-06-19T10:06:14;100199.56;;;26.75;62.70
22605;BME280;11469;49.024;8.246;2023-06-19T10:08:45;100206.56;;;26.56;62.92
22605;BME280;11469;49.024;8.246;2023-06-19T10:11:12;100209.47;;;26.65;62.96
22605;BME280;11469;49.024;8.246;2023-06-19T10:13:40;100201.31;;;26.73;62.02
22605;BME280;11469;49.024;8.246;2023-06-19T10:16:06;100198.31;;;26.86;62.73
22605;BME280;11469;49.024;8.246;2023-06-19T10:18:33;100188.84;;;26.94;60.84
22605;BME280;11469;49.024;8.246;2023-06-19T10:21:18;100191.28;;;27.14;59.90
22605;BME280;11469;49.024;8.246;2023-06-19T10:23:54;100194.31;;;27.20;60.67
22605;BME280;11469;49.024;8.246;2023-06-19T10:26:33;100183.75;;;27.17;59.42
22605;BME280;11469;49.024;8.246;2023-06-19T10:28:58;100181.03;;;27.31;59.60
22605;BME280;11469;49.024;8.246;2023-06-19T10:31:24;100187.06;;;27.42;60.51
22605;BME280;11469;49.024;8.246;2023-06-19T10:33:49;100181.22;;;27.00;59.55
22605;BME280;11469;49.024;8.246;2023-06-19T10:36:20;100174.66;;;26.91;59.91
22605;BME280;11469;49.024;8.246;2023-06-19T10:38:51;100182.97;;;26.89;60.54
22605;BME280;11469;49.024;8.246;2023-06-19T10:41:22;100169.38;;;27.07;60.06
22605;BME280;11469;49.024;8.246;2023-06-19T10:43:58;100170.63;;;27.34;60.30
22605;BME280;11469;49.024;8.246;2023-06-19T10:46:24;100167.28;;;27.26;60.78
22605;BME280;11469;49.024;8.246;2023-06-19T10:48:50;100169.88;;;27.15;60.51
22605;BME280;11469;49.024;8.246;2023-06-19T10:51:19;100163.75;;;27.40;61.00
22605;BME280;11469;49.024;8.246;2023-06-19T10:53:45;100164.81;;;27.61;59.78
22605;BME280;11469;49.024;8.246;2023-06-19T10:56:10;100156.31;;;27.67;58.27
22605;BME280;11469;49.024;8.246;2023-06-19T10:58:36;100158.34;;;27.85;58.64
22605;BME280;11469;49.024;8.246;2023-06-19T11:01:01;100162.56;;;27.98;58.55
22605;BME280;11469;49.024;8.246;2023-06-19T11:03:28;100160.97;;;27.97;57.26
22605;BME280;11469;49.024;8.246;2023-06-19T11:05:53;100155.38;;;27.94;55.94
22605;BME280;11469;49.024;8.246;2023-06-19T11:08:23;100149.94;;;27.96;56.79
22605;BME280;11469;49.024;8.246;2023-06-19T11:10:49;100141.25;;;28.05;55.97
22605;BME280;11469;49.024;8.246;2023-06-19T11:13:16;100147.75;;;28.24;56.01
22605;BME280;11469;49.024;8.246;2023-06-19T11:15:42;100141.84;;;28.42;55.01
22605;BME280;11469;49.024;8.246;2023-06-19T11:18:08;100136.94;;;28.57;54.62
22605;BME280;11469;49.024;8.246;2023-06-19T11:20:45;100138.53;;;28.58;54.56
22605;BME280;11469;49.024;8.246;2023-06-19T11:23:10;100135.63;;;28.82;54.42
22605;BME280;11469;49.024;8.246;2023-06-19T11:25:37;100124.19;;;28.88;54.19
22605;BME280;11469;49.024;8.246;2023-06-19T11:28:13;100130.34;;;28.81;54.72
22605;BME280;11469;49.024;8.246;2023-06-19T11:30:39;100133.38;;;28.62;53.95
22605;BME280;11469;49.024;8.246;2023-06-19T11:33:16;100132.91;;;28.79;53.94
22605;BME280;11469;49.024;8.246;2023-06-19T11:35:47;100137.00;;;28.87;53.04
22605;BME280;11469;49.024;8.246;2023-06-19T11:38:17;100134.66;;;29.00;53.04
22605;BME280;11469;49.024;8.246;2023-06-19T11:40:43;100135.56;;;29.21;53.12
22605;BME280;11469;49.024;8.246;2023-06-19T11:43:11;100126.03;;;29.44;52.26
22605;BME280;11469;49.024;8.246;2023-06-19T11:45:47;100126.44;;;29.87;52.20
22605;BME280;11469;49.024;8.246;2023-06-19T11:48:13;100117.81;;;30.22;51.21
22605;BME280;11469;49.024;8.246;2023-06-19T11:50:39;100120.47;;;30.46;50.15
22605;BME280;11469;49.024;8.246;2023-06-19T11:53:04;100116.53;;;30.63;49.71
22605;BME280;11469;49.024;8.246;2023-06-19T11:55:30;100114.19;;;30.47;47.29
22605;BME280;11469;49.024;8.246;2023-06-19T11:57:55;100105.06;;;30.54;47.48
22605;BME280;11469;49.024;8.246;2023-06-19T12:00:20;100115.56;;;30.52;47.26
22605;BME280;11469;49.024;8.246;2023-06-19T12:02:46;100111.13;;;30.56;47.41
22605;BME280;11469;49.024;8.246;2023-06-19T12:05:12;100110.63;;;30.78;46.39
22605;BME280;11469;49.024;8.246;2023-06-19T12:07:38;100106.97;;;30.57;46.58
22605;BME280;11469;49.024;8.246;2023-06-19T12:10:04;100104.50;;;30.50;47.05
22605;BME280;11469;49.024;8.246;2023-06-19T12:12:35;100101.72;;;30.82;46.73
22605;BME280;11469;49.024;8.246;2023-06-19T12:15:00;100096.69;;;30.56;46.49
22605;BME280;11469;49.024;8.246;2023-06-19T12:17:26;100093.50;;;30.75;47.31
22605;BME280;11469;49.024;8.246;2023-06-19T12:19:51;100100.81;;;30.70;46.43
22605;BME280;11469;49.024;8.246;2023-06-19T12:22:18;100089.06;;;30.79;46.22
22605;BME280;11469;49.024;8.246;2023-06-19T12:24:43;100091.56;;;30.66;44.58
22605;BME280;11469;49.024;8.246;2023-06-19T12:27:09;100092.38;;;30.66;46.08
22605;BME280;11469;49.024;8.246;2023-06-19T12:29:34;100082.09;;;30.04;47.30
22605;BME280;11469;49.024;8.246;2023-06-19T12:32:01;100081.88;;;30.28;47.43
22605;BME280;11469;49.024;8.246;2023-06-19T12:34:28;100078.13;;;30.63;46.33
22605;BME280;11469;49.024;8.246;2023-06-19T12:36:53;100071.63;;;30.94;45.36
22605;BME280;11469;49.024;8.246;2023-06-19T12:39:19;100071.13;;;30.69;45.12
22605;BME280;11469;49.024;8.246;2023-06-19T12:41:45;100077.28;;;30.57;45.31
22605;BME280;11469;49.024;8.246;2023-06-19T12:44:10;100070.31;;;30.49;46.10
22605;BME280;11469;49.024;8.246;2023-06-19T12:46:36;100076.13;;;30.75;45.93
22605;BME280;11469;49.024;8.246;2023-06-19T12:49:01;100062.19;;;30.99;45.80
22605;BME280;11469;49.024;8.246;2023-06-19T12:51:26;100070.84;;;31.19;45.81